Hlavní strana
METAR-TAF:

METAR-TAF

Letiště :

Letiště Larnaka

Larnaka, Kypr

zeměpisná šířka: 34-53N, zeměpisná délka: 033-38E, výška: 2 m

Aktuální stav počasí

Zpráva byla vytvořena před 14 minutami, v 01:30 UTC
Severozápadní vítr 5 kt
Teplota 9°C
Vlhkost vzduchu 76%
Tlak 1016 hPa
Viditelnost 10 km a více
Žádná oblačnost pod 1500 m, nevyskytují se cumulonimby.

METAR: LCLK 260130Z 31005KT CAVOK 09/05 Q1016 NOSIG

Čas: 03:44 (01:44 UTC)

Předpověď počasí

Zpráva byla vytvořena před 2 hodinami a 14 minutami, v 23:30 UTC
Předpověď platná od 26 v 00 UTC do 26 v 24 UTC
Severozápadní vítr 6 kt
Viditelnost 10 km a více
Skoro jasno ve výšce 2000 ft
Změna
od 26 v 09 UTC do 26 v 12 UTC
Jihojihozápadní vítr 12 kt
Změna
od 26 v 17 UTC do 26 v 19 UTC
Severozápadní vítr 6 kt

TAF: LCLK 252330Z 2600/2624 32006KT 9999 FEW020 BECMG 2609/2612 21012KT BECMG 2617/2619 32006KT

Stav a předpovědi počasí z více než 4 000 letišť (zprávy METAR a TAF).

Červené a žluté tečky na mapě představují dostupné meteorologické stanice.

Když kurzor umístíte na tečku, zobrazí se název stanice.

Pak kliknutím zobrazíte stav a předpověď počasí.

Chcete-li změnit mapu, kliknutím na zelené tlačítko se znaménkem +mapu přiblížíte, kliknutím na zelené tlačítko se znaménkem – mapu oddálíte a kliknutím na zelené šipky přejdete na sousední mapy.


METAR-TAF: